Terminal Aerodrome Forecast
Issued by NWS

Home | Current Version | Previous Version | Text Only | Print | Product List | Glossary On
Versions: 1 2 3 4 5 6 7 8 9 10 11 12 13 14 15 16 17 18 19 20 21
307
FTUS43 KGRR 260621 AAA
TAFJXN
TAF AMD
KJXN 260621Z 2606/2706 11010KT P6SM -RA BKN010
     FM261100 12007KT 2SM BR VCTS OVC009CB
     FM261500 14010KT 2SM -RA BR OVC011
     FM261800 18009KT 3SM -RA BR OVC007
     FM262200 20008KT 3SM -SHRA BR OVC015=

USA.gov is the U.S. government's official web portal to all federal, state and local government web resources and services.